createdAt,value
2023-03-15T00:00:34.416Z,1.28
2023-03-15T00:03:00.636Z,1.31
2023-03-15T00:05:26.849Z,1.32
2023-03-15T00:07:53.071Z,1.34
2023-03-15T00:10:19.329Z,1.27
2023-03-15T00:12:45.526Z,1.28
2023-03-15T00:15:13.312Z,1.21
2023-03-15T00:17:39.524Z,1.16
2023-03-15T00:20:06.015Z,1.16
2023-03-15T00:22:32.228Z,1.18
2023-03-15T00:24:58.419Z,1.21
2023-03-15T00:27:24.628Z,1.17
2023-03-15T00:29:50.823Z,1.20
2023-03-15T00:32:17.046Z,1.24
2023-03-15T00:34:43.261Z,1.22
2023-03-15T00:37:09.483Z,1.19
2023-03-15T00:39:35.693Z,1.27
2023-03-15T00:42:01.907Z,1.22
2023-03-15T00:44:28.113Z,1.22
2023-03-15T00:46:54.416Z,1.23
2023-03-15T00:49:20.654Z,1.19
2023-03-15T00:51:46.885Z,1.18
2023-03-15T00:54:13.098Z,1.06
2023-03-15T00:56:39.368Z,0.96
2023-03-15T00:59:05.568Z,0.90
2023-03-15T01:01:31.827Z,0.75
2023-03-15T01:03:58.057Z,0.66
2023-03-15T01:06:24.880Z,0.62
2023-03-15T01:08:51.217Z,0.58
2023-03-15T01:11:18.338Z,0.55
2023-03-15T01:13:44.570Z,0.56
2023-03-15T01:16:11.376Z,0.53
2023-03-15T01:18:37.606Z,0.55
2023-03-15T01:21:06.292Z,0.56
2023-03-15T01:23:32.495Z,0.56
2023-03-15T01:26:05.224Z,0.58
2023-03-15T01:28:31.455Z,0.66
2023-03-15T01:30:59.777Z,0.67
2023-03-15T01:33:26.281Z,0.70
2023-03-15T01:35:57.974Z,0.68
2023-03-15T01:38:24.204Z,0.67
2023-03-15T01:40:50.423Z,0.62
2023-03-15T01:43:17.631Z,0.64
2023-03-15T01:45:59.156Z,0.65
2023-03-15T01:48:34.575Z,0.60
2023-03-15T01:51:16.034Z,0.63
2023-03-15T01:53:42.684Z,0.58
2023-03-15T01:56:08.904Z,0.59
2023-03-15T01:58:36.880Z,0.59
2023-03-15T02:01:03.243Z,0.58
2023-03-15T02:03:34.730Z,0.63
2023-03-15T02:06:02.141Z,0.69
2023-03-15T02:08:29.119Z,0.73
2023-03-15T02:10:56.065Z,0.71
2023-03-15T02:13:23.307Z,0.71
2023-03-15T02:15:49.621Z,0.70
2023-03-15T02:18:16.010Z,0.63
2023-03-15T02:20:48.457Z,0.57
2023-03-15T02:23:15.316Z,0.54
2023-03-15T02:25:59.923Z,0.44
2023-03-15T02:28:26.151Z,0.44
2023-03-15T02:30:52.355Z,0.49
2023-03-15T02:33:35.534Z,0.57
2023-03-15T02:36:11.014Z,0.63
2023-03-15T02:38:37.258Z,0.60
2023-03-15T02:41:03.600Z,0.56
2023-03-15T02:43:30.027Z,0.53
2023-03-15T02:45:56.312Z,0.56
2023-03-15T02:48:22.590Z,0.56
2023-03-15T02:50:48.808Z,0.62
2023-03-15T02:53:15.019Z,0.65
2023-03-15T02:55:41.232Z,0.70
2023-03-15T02:58:07.440Z,0.72
2023-03-15T03:00:33.652Z,0.77
2023-03-15T03:02:59.889Z,0.70
2023-03-15T03:05:26.116Z,0.69
2023-03-15T03:07:52.338Z,0.72
2023-03-15T03:10:19.388Z,0.70
2023-03-15T03:12:45.607Z,0.68
2023-03-15T03:15:11.928Z,0.67
2023-03-15T03:17:38.131Z,0.62
2023-03-15T03:20:05.440Z,0.60
2023-03-15T03:22:31.663Z,0.63
2023-03-15T03:24:57.866Z,0.63
2023-03-15T03:27:24.077Z,0.59
2023-03-15T03:29:50.294Z,0.61
2023-03-15T03:32:16.503Z,0.59
2023-03-15T03:34:42.691Z,0.55
2023-03-15T03:37:08.904Z,0.54
2023-03-15T03:39:35.109Z,0.55
2023-03-15T03:42:01.302Z,0.56
2023-03-15T03:44:27.539Z,0.56
2023-03-15T03:46:53.741Z,0.57
2023-03-15T03:49:19.971Z,0.57
2023-03-15T03:51:46.186Z,0.55
2023-03-15T03:54:12.396Z,0.53
2023-03-15T03:56:38.623Z,0.52
2023-03-15T03:59:04.831Z,0.47
2023-03-15T04:01:31.086Z,0.41
2023-03-15T04:03:57.303Z,0.37
2023-03-15T04:06:23.517Z,0.36
2023-03-15T04:08:49.745Z,0.34
2023-03-15T04:11:15.946Z,0.34
2023-03-15T04:13:42.162Z,0.32
2023-03-15T04:16:08.470Z,0.30
2023-03-15T04:18:34.740Z,0.33
2023-03-15T04:21:02.808Z,0.36
2023-03-15T04:23:29.021Z,0.39
2023-03-15T04:25:55.331Z,0.40
2023-03-15T04:28:21.571Z,0.43
2023-03-15T04:30:47.793Z,0.47
2023-03-15T04:33:14.014Z,0.48
2023-03-15T04:35:40.256Z,0.58
2023-03-15T04:38:06.485Z,0.56
2023-03-15T04:40:32.700Z,0.59
2023-03-15T04:42:58.920Z,0.57
2023-03-15T04:45:25.253Z,0.59
2023-03-15T04:47:51.707Z,0.60
2023-03-15T04:50:18.050Z,0.63
2023-03-15T04:52:44.262Z,0.65
2023-03-15T04:55:10.464Z,0.62
2023-03-15T04:57:36.696Z,0.61
2023-03-15T05:00:03.439Z,0.58
2023-03-15T05:02:29.649Z,0.56
2023-03-15T05:04:55.863Z,0.55
2023-03-15T05:07:22.057Z,0.50
2023-03-15T05:09:48.264Z,0.44
2023-03-15T05:12:14.455Z,0.42
2023-03-15T05:14:40.687Z,0.40
2023-03-15T05:17:06.897Z,0.37
2023-03-15T05:19:33.108Z,0.32
2023-03-15T05:21:59.314Z,0.30
2023-03-15T05:24:25.519Z,0.22
2023-03-15T05:26:51.709Z,0.17
2023-03-15T05:29:17.916Z,0.10
2023-03-15T05:31:44.128Z,0.16
2023-03-15T05:34:10.370Z,0.27
2023-03-15T05:36:36.568Z,0.40
2023-03-15T05:39:02.776Z,0.42
2023-03-15T05:41:28.966Z,0.47
2023-03-15T05:43:55.441Z,0.43
2023-03-15T05:46:21.700Z,0.38
2023-03-15T05:48:48.381Z,0.36
2023-03-15T05:51:14.796Z,0.31
2023-03-15T05:53:41.160Z,0.24
2023-03-15T05:56:07.685Z,0.15
2023-03-15T05:58:33.915Z,0.14
2023-03-15T06:01:00.476Z,0.16
2023-03-15T06:03:27.246Z,0.17
2023-03-15T06:05:53.546Z,0.18
2023-03-15T06:08:19.889Z,0.23
2023-03-15T06:10:46.160Z,0.24
2023-03-15T06:13:12.371Z,0.33
2023-03-15T06:15:38.582Z,0.41
2023-03-15T06:18:05.016Z,0.41
2023-03-15T06:20:31.254Z,0.43
2023-03-15T06:22:57.629Z,0.41
2023-03-15T06:25:23.852Z,0.37
2023-03-15T06:27:50.058Z,0.38
2023-03-15T06:30:17.202Z,0.26
2023-03-15T06:32:43.516Z,0.27
2023-03-15T06:35:09.784Z,0.23
2023-03-15T06:37:35.979Z,0.16
2023-03-15T06:40:03.292Z,0.19
2023-03-15T06:42:29.487Z,0.19
2023-03-15T06:44:55.737Z,0.22
2023-03-15T06:47:21.943Z,0.44
2023-03-15T06:49:48.158Z,0.59
2023-03-15T06:52:14.368Z,0.63
2023-03-15T06:54:40.584Z,1.00
2023-03-15T06:57:06.842Z,1.18
2023-03-15T06:59:33.227Z,1.37
2023-03-15T07:02:01.902Z,1.39
2023-03-15T07:04:28.125Z,1.79
2023-03-15T07:06:54.349Z,2.42
2023-03-15T07:09:20.590Z,2.50
2023-03-15T07:11:46.803Z,2.86
2023-03-15T07:14:13.018Z,2.86
2023-03-15T07:16:39.285Z,2.68
2023-03-15T07:19:05.586Z,3.00
2023-03-15T07:21:31.825Z,2.85
2023-03-15T07:23:58.035Z,2.34
2023-03-15T07:26:24.241Z,2.29
2023-03-15T07:28:50.453Z,2.04
2023-03-15T07:31:16.645Z,1.78
2023-03-15T07:33:42.858Z,1.50
2023-03-15T07:36:09.074Z,1.94
2023-03-15T07:38:35.428Z,2.25
2023-03-15T07:41:01.825Z,2.23
2023-03-15T07:43:28.030Z,2.31
2023-03-15T07:45:54.221Z,2.48
2023-03-15T07:48:20.486Z,2.51
2023-03-15T07:50:46.703Z,2.63
2023-03-15T07:53:12.908Z,2.58
2023-03-15T07:55:39.150Z,2.89
2023-03-15T07:58:05.350Z,2.78
2023-03-15T08:00:31.564Z,2.78
2023-03-15T08:02:57.987Z,2.86
2023-03-15T08:05:24.237Z,2.94
2023-03-15T08:07:51.192Z,2.93
2023-03-15T08:10:17.794Z,3.11
2023-03-15T08:12:43.996Z,3.36
2023-03-15T08:15:10.729Z,3.28
2023-03-15T08:17:37.212Z,3.14
2023-03-15T08:20:03.482Z,3.45
2023-03-15T08:22:29.677Z,3.29
2023-03-15T08:24:55.878Z,3.58
2023-03-15T08:27:22.089Z,3.37
2023-03-15T08:29:48.297Z,3.24
2023-03-15T08:32:14.506Z,3.40
2023-03-15T08:34:40.719Z,3.01
2023-03-15T08:37:06.930Z,2.68
2023-03-15T08:39:33.145Z,2.33
2023-03-15T08:41:59.340Z,2.26
2023-03-15T08:44:25.567Z,2.27
2023-03-15T08:46:51.831Z,2.42
2023-03-15T08:49:18.038Z,2.86
2023-03-15T08:51:44.227Z,3.23
2023-03-15T08:54:10.452Z,3.41
2023-03-15T08:56:36.683Z,3.83
2023-03-15T08:59:02.913Z,3.86
2023-03-15T09:01:29.126Z,3.86
2023-03-15T09:03:55.401Z,4.08
2023-03-15T09:06:21.673Z,4.07
2023-03-15T09:08:47.878Z,4.29
2023-03-15T09:11:14.092Z,4.02
2023-03-15T09:13:40.290Z,4.07
2023-03-15T09:16:06.517Z,4.22
2023-03-15T09:18:32.715Z,4.57
2023-03-15T09:20:59.050Z,4.05
2023-03-15T09:23:25.315Z,4.35
2023-03-15T09:25:51.558Z,4.41
2023-03-15T09:28:17.882Z,4.27
2023-03-15T09:30:44.152Z,4.08
2023-03-15T09:33:10.453Z,4.19
2023-03-15T09:35:36.780Z,4.49
2023-03-15T09:38:03.064Z,4.10
2023-03-15T09:40:30.282Z,3.74
2023-03-15T09:43:08.456Z,3.76
2023-03-15T09:45:37.493Z,3.98
2023-03-15T09:48:05.553Z,3.74
2023-03-15T09:50:32.860Z,3.98
2023-03-15T09:53:08.262Z,4.23
2023-03-15T09:55:40.070Z,4.21
2023-03-15T09:58:13.763Z,4.41
2023-03-15T10:00:41.503Z,4.35
2023-03-15T10:03:09.697Z,4.61
2023-03-15T10:05:40.734Z,5.05
2023-03-15T10:08:14.955Z,5.18
2023-03-15T10:10:44.514Z,4.62
2023-03-15T10:13:22.944Z,4.72
2023-03-15T10:15:58.202Z,5.20
2023-03-15T10:18:31.090Z,4.98
2023-03-15T10:21:01.786Z,5.17
2023-03-15T10:23:57.490Z,5.49
2023-03-15T10:26:33.207Z,5.27
2023-03-15T10:28:59.851Z,5.29
2023-03-15T10:31:41.078Z,5.30
2023-03-15T10:34:10.108Z,5.44
2023-03-15T10:36:36.382Z,5.37
2023-03-15T10:39:02.648Z,5.65
2023-03-15T10:41:41.956Z,5.26
2023-03-15T10:44:12.480Z,5.62
2023-03-15T10:46:38.744Z,5.65
2023-03-15T10:49:08.133Z,5.06
2023-03-15T10:51:38.387Z,5.23
2023-03-15T10:54:05.337Z,5.18
2023-03-15T10:56:31.911Z,4.63
2023-03-15T10:59:11.557Z,4.71
2023-03-15T11:01:38.956Z,4.73
2023-03-15T11:04:11.314Z,4.46
2023-03-15T11:06:40.523Z,3.83
2023-03-15T11:09:10.517Z,2.94
2023-03-15T11:11:50.757Z,2.81
2023-03-15T11:14:18.382Z,3.12
2023-03-15T11:16:46.666Z,3.74
2023-03-15T11:19:14.166Z,4.21
2023-03-15T11:21:40.389Z,4.33
2023-03-15T11:24:06.940Z,4.52
2023-03-15T11:26:34.243Z,4.52
2023-03-15T11:29:04.413Z,4.59
2023-03-15T11:31:30.659Z,4.54
2023-03-15T11:33:59.863Z,4.90
2023-03-15T11:36:30.266Z,5.03
2023-03-15T11:38:56.502Z,5.01
2023-03-15T11:41:41.406Z,5.39
2023-03-15T11:44:25.999Z,5.23
2023-03-15T11:46:54.092Z,5.18
2023-03-15T11:49:24.213Z,5.19
2023-03-15T11:51:50.425Z,5.34
2023-03-15T11:54:19.639Z,5.47
2023-03-15T11:56:53.209Z,5.59
2023-03-15T11:59:28.577Z,5.68
2023-03-15T12:01:55.875Z,5.37
2023-03-15T12:04:25.067Z,5.62
2023-03-15T12:06:54.740Z,6.15
2023-03-15T12:09:33.146Z,6.31
2023-03-15T12:12:06.487Z,6.11
2023-03-15T12:14:33.313Z,5.85
2023-03-15T12:17:18.529Z,6.18
2023-03-15T12:19:44.738Z,6.30
2023-03-15T12:22:15.049Z,5.93
2023-03-15T12:24:41.280Z,5.64
2023-03-15T12:27:14.859Z,5.54
2023-03-15T12:29:41.070Z,5.54
2023-03-15T12:32:08.710Z,5.82
2023-03-15T12:34:53.564Z,5.74
2023-03-15T12:37:22.834Z,5.74
2023-03-15T12:39:49.942Z,5.82
2023-03-15T12:42:31.286Z,5.55
2023-03-15T12:45:15.793Z,5.36
2023-03-15T12:47:45.389Z,5.14
2023-03-15T12:50:30.376Z,5.31
2023-03-15T12:52:58.005Z,5.50
2023-03-15T12:55:24.208Z,6.06
2023-03-15T12:57:50.806Z,6.23
2023-03-15T13:00:24.051Z,5.87
2023-03-15T13:02:50.977Z,5.61
2023-03-15T13:05:18.871Z,5.36
2023-03-15T13:07:52.342Z,5.72
2023-03-15T13:10:37.687Z,5.74
2023-03-15T13:13:07.071Z,5.71
2023-03-15T13:15:40.709Z,5.30
2023-03-15T13:18:20.651Z,5.41
2023-03-15T13:21:22.782Z,5.43
2023-03-15T13:23:51.783Z,5.56
2023-03-15T13:26:21.032Z,5.59
2023-03-15T13:28:48.228Z,5.73
2023-03-15T13:31:20.229Z,5.26
2023-03-15T13:33:47.103Z,5.25
2023-03-15T13:36:17.099Z,5.30
2023-03-15T13:38:48.249Z,5.07
2023-03-15T13:41:18.726Z,4.94
2023-03-15T13:43:44.950Z,4.95
2023-03-15T13:46:11.331Z,4.79
2023-03-15T13:48:39.799Z,4.71
2023-03-15T13:51:07.628Z,4.61
2023-03-15T13:53:48.480Z,4.49
2023-03-15T13:56:16.478Z,2.98
2023-03-15T13:58:42.717Z,2.69
2023-03-15T14:01:09.246Z,2.83
2023-03-15T14:03:35.459Z,2.96
2023-03-15T14:06:01.748Z,2.83
2023-03-15T14:08:29.180Z,2.66
2023-03-15T14:11:02.537Z,3.23
2023-03-15T14:13:29.789Z,3.44
2023-03-15T14:15:59.143Z,3.56
2023-03-15T14:18:26.103Z,3.79
2023-03-15T14:21:11.156Z,3.89
2023-03-15T14:23:47.038Z,3.85
2023-03-15T14:26:16.089Z,3.58
2023-03-15T14:28:42.385Z,3.65
2023-03-15T14:31:08.652Z,3.38
2023-03-15T14:33:38.920Z,3.24
2023-03-15T14:36:08.173Z,3.22
2023-03-15T14:38:36.634Z,3.30
2023-03-15T14:41:19.840Z,3.32
2023-03-15T14:43:46.061Z,3.29
2023-03-15T14:46:12.459Z,3.32
2023-03-15T14:48:39.227Z,3.22
2023-03-15T14:51:05.767Z,3.19
2023-03-15T14:53:34.113Z,3.12
2023-03-15T14:56:00.334Z,3.18
2023-03-15T14:58:26.538Z,3.22
2023-03-15T15:00:53.373Z,3.23
2023-03-15T15:03:21.336Z,3.20
2023-03-15T15:05:47.817Z,3.16
2023-03-15T15:08:14.720Z,3.09
2023-03-15T15:10:41.280Z,2.89
2023-03-15T15:13:09.403Z,2.20
2023-03-15T15:15:53.551Z,2.04
2023-03-15T15:18:21.399Z,2.28
2023-03-15T15:20:47.672Z,2.52
2023-03-15T15:23:20.806Z,2.69
2023-03-15T15:25:47.116Z,2.76
2023-03-15T15:28:15.809Z,2.79
2023-03-15T15:30:47.024Z,2.85
2023-03-15T15:33:13.232Z,2.97
2023-03-15T15:35:39.480Z,3.07
2023-03-15T15:38:08.809Z,3.07
2023-03-15T15:40:35.017Z,3.10
2023-03-15T15:43:01.225Z,3.17
2023-03-15T15:45:27.460Z,3.23
2023-03-15T15:47:53.674Z,3.33
2023-03-15T15:50:19.900Z,3.15
2023-03-15T15:52:47.422Z,3.12
2023-03-15T15:55:14.269Z,3.10
2023-03-15T15:57:40.479Z,3.07
2023-03-15T16:00:07.133Z,3.08
2023-03-15T16:02:35.443Z,3.08
2023-03-15T16:05:01.689Z,3.13
2023-03-15T16:07:27.913Z,3.18
2023-03-15T16:09:55.451Z,3.21
2023-03-15T16:12:21.759Z,3.10
2023-03-15T16:14:50.493Z,2.80
2023-03-15T16:17:23.150Z,2.63
2023-03-15T16:19:52.737Z,2.52
2023-03-15T16:22:19.305Z,2.54
2023-03-15T16:24:46.254Z,2.48
2023-03-15T16:27:13.256Z,2.57
2023-03-15T16:29:45.987Z,2.62
2023-03-15T16:32:19.097Z,2.59
2023-03-15T16:34:47.386Z,2.54
2023-03-15T16:37:13.876Z,2.50
2023-03-15T16:39:41.161Z,2.42
2023-03-15T16:42:09.780Z,2.36
2023-03-15T16:44:35.979Z,2.33
2023-03-15T16:47:02.197Z,2.32
2023-03-15T16:49:28.391Z,2.32
2023-03-15T16:51:54.601Z,2.35
2023-03-15T16:54:38.256Z,2.40
2023-03-15T16:57:17.054Z,2.36
2023-03-15T16:59:43.254Z,2.31
2023-03-15T17:02:18.680Z,2.30
2023-03-15T17:04:45.028Z,2.29
2023-03-15T17:07:11.240Z,2.32
2023-03-15T17:09:37.433Z,2.34
2023-03-15T17:12:03.741Z,2.28
2023-03-15T17:14:30.185Z,2.23
2023-03-15T17:16:56.408Z,2.22
2023-03-15T17:19:22.627Z,2.18
2023-03-15T17:21:48.865Z,2.14
2023-03-15T17:24:15.079Z,2.12
2023-03-15T17:26:41.292Z,2.06
2023-03-15T17:29:07.502Z,2.03
2023-03-15T17:31:34.156Z,2.02
2023-03-15T17:34:00.396Z,1.98
2023-03-15T17:36:27.798Z,2.03
2023-03-15T17:38:54.004Z,1.92
2023-03-15T17:41:21.018Z,1.86
2023-03-15T17:43:47.577Z,1.89
2023-03-15T17:46:14.352Z,1.83
2023-03-15T17:48:40.565Z,1.83
2023-03-15T17:51:06.780Z,1.84
2023-03-15T17:53:32.998Z,1.78
2023-03-15T17:55:59.202Z,1.80
2023-03-15T17:58:25.432Z,1.77
2023-03-15T18:00:51.732Z,1.78
2023-03-15T18:03:17.984Z,1.80
2023-03-15T18:05:44.255Z,1.80
2023-03-15T18:08:11.064Z,1.78
2023-03-15T18:10:38.275Z,1.77
2023-03-15T18:13:04.524Z,1.76
2023-03-15T18:15:30.738Z,1.68
2023-03-15T18:17:57.013Z,1.65
2023-03-15T18:20:23.226Z,1.65
2023-03-15T18:22:49.593Z,1.66
2023-03-15T18:25:25.810Z,1.61
2023-03-15T18:27:52.122Z,1.59
2023-03-15T18:30:19.142Z,1.56
2023-03-15T18:32:45.405Z,1.55
2023-03-15T18:35:13.850Z,1.54
2023-03-15T18:37:40.065Z,1.58
2023-03-15T18:40:06.487Z,1.55
2023-03-15T18:42:32.721Z,1.55
2023-03-15T18:44:58.937Z,1.50
2023-03-15T18:47:25.166Z,1.51
2023-03-15T18:49:58.058Z,1.49
2023-03-15T18:52:27.314Z,1.47
2023-03-15T18:54:53.527Z,1.45
2023-03-15T18:57:19.756Z,1.48
2023-03-15T18:59:46.318Z,1.48
2023-03-15T19:02:12.535Z,1.43
2023-03-15T19:04:38.764Z,1.46
2023-03-15T19:07:04.977Z,1.47
2023-03-15T19:09:31.194Z,1.46
2023-03-15T19:11:57.392Z,1.49
2023-03-15T19:14:23.604Z,1.47
2023-03-15T19:16:49.841Z,1.50
2023-03-15T19:19:16.073Z,1.46
2023-03-15T19:21:42.278Z,1.42
2023-03-15T19:24:08.566Z,1.40
2023-03-15T19:26:34.800Z,1.38
2023-03-15T19:29:01.052Z,1.38
2023-03-15T19:31:27.336Z,1.33
2023-03-15T19:33:53.574Z,1.27
2023-03-15T19:36:19.862Z,1.24
2023-03-15T19:38:46.135Z,1.24
2023-03-15T19:41:13.133Z,1.20
2023-03-15T19:43:39.609Z,1.22
2023-03-15T19:46:05.867Z,1.22
2023-03-15T19:48:32.109Z,1.25
2023-03-15T19:50:58.319Z,1.26
2023-03-15T19:53:24.553Z,1.29
2023-03-15T19:55:50.794Z,1.29
2023-03-15T19:58:17.018Z,1.29
2023-03-15T20:00:43.221Z,1.30
2023-03-15T20:03:09.462Z,1.28
2023-03-15T20:05:35.826Z,1.35
2023-03-15T20:08:02.033Z,1.38
2023-03-15T20:10:28.262Z,1.37
2023-03-15T20:12:54.492Z,1.35
2023-03-15T20:15:20.688Z,1.38
2023-03-15T20:17:46.909Z,1.36
2023-03-15T20:20:13.185Z,1.52
2023-03-15T20:22:41.393Z,1.56
2023-03-15T20:25:07.869Z,1.58
2023-03-15T20:27:34.226Z,1.68
2023-03-15T20:30:00.454Z,1.68
2023-03-15T20:32:26.687Z,1.61
2023-03-15T20:34:52.894Z,1.63
2023-03-15T20:37:19.108Z,1.64
2023-03-15T20:39:45.363Z,1.61
2023-03-15T20:42:11.566Z,1.65
2023-03-15T20:44:37.910Z,1.68
2023-03-15T20:47:04.222Z,1.68
2023-03-15T20:49:30.732Z,1.63
2023-03-15T20:51:56.925Z,1.62
2023-03-15T20:54:23.145Z,1.56
2023-03-15T20:56:49.398Z,1.47
2023-03-15T20:59:15.627Z,1.38
2023-03-15T21:01:41.838Z,1.30
2023-03-15T21:04:08.263Z,1.23
2023-03-15T21:06:34.915Z,1.17
2023-03-15T21:09:01.159Z,1.18
2023-03-15T21:11:27.597Z,1.20
2023-03-15T21:13:53.867Z,1.15
2023-03-15T21:16:20.151Z,1.18
2023-03-15T21:18:46.767Z,1.22
2023-03-15T21:21:13.032Z,1.22
2023-03-15T21:23:59.320Z,1.23
2023-03-15T21:29:12.387Z,1.29
2023-03-15T21:31:38.643Z,1.31
2023-03-15T21:34:04.876Z,1.28
2023-03-15T21:36:31.096Z,1.28
2023-03-15T21:38:57.323Z,1.28
2023-03-15T21:41:23.547Z,1.43
2023-03-15T21:43:49.791Z,1.54
2023-03-15T21:46:16.191Z,1.51
2023-03-15T21:48:42.489Z,1.50
2023-03-15T21:51:08.704Z,1.51
2023-03-15T21:53:35.157Z,1.50
2023-03-15T21:56:01.460Z,1.44
2023-03-15T21:58:27.672Z,1.39
2023-03-15T22:00:57.736Z,1.38
2023-03-15T22:03:23.956Z,1.40
2023-03-15T22:05:50.192Z,1.37
2023-03-15T22:08:16.404Z,1.32
2023-03-15T22:10:42.623Z,1.31
2023-03-15T22:13:08.934Z,1.26
2023-03-15T22:15:35.189Z,1.20
2023-03-15T22:18:01.436Z,1.19
2023-03-15T22:20:27.998Z,1.12
2023-03-15T22:22:54.197Z,1.10
2023-03-15T22:25:20.446Z,1.06
2023-03-15T22:27:46.798Z,0.94
2023-03-15T22:30:13.479Z,0.85
2023-03-15T22:32:40.325Z,0.81
2023-03-15T22:35:06.909Z,0.75
2023-03-15T22:37:33.128Z,0.75
2023-03-15T22:39:59.642Z,0.69
2023-03-15T22:42:30.185Z,0.69
2023-03-15T22:44:59.217Z,0.68
2023-03-15T22:47:25.489Z,0.66
2023-03-15T22:50:27.491Z,0.63
2023-03-15T22:53:04.376Z,0.71
2023-03-15T22:55:44.071Z,0.71
2023-03-15T22:58:12.896Z,0.68
2023-03-15T23:00:45.371Z,0.64
2023-03-15T23:03:11.813Z,0.66
2023-03-15T23:05:56.534Z,0.66
2023-03-15T23:08:35.809Z,0.60
2023-03-15T23:11:11.662Z,0.59
2023-03-15T23:13:37.882Z,0.63
2023-03-15T23:16:04.316Z,0.66
2023-03-15T23:18:36.011Z,0.67
2023-03-15T23:21:08.781Z,0.60
2023-03-15T23:23:35.048Z,0.57
2023-03-15T23:26:06.263Z,0.64
2023-03-15T23:28:35.352Z,0.61
2023-03-15T23:31:13.999Z,0.55
2023-03-15T23:33:40.288Z,0.56
2023-03-15T23:36:06.665Z,0.56
2023-03-15T23:38:32.937Z,0.58
2023-03-15T23:40:59.170Z,0.55
2023-03-15T23:43:25.377Z,0.54
2023-03-15T23:45:58.009Z,0.56
2023-03-15T23:48:24.224Z,0.56
2023-03-15T23:50:53.748Z,0.56
2023-03-15T23:53:22.604Z,0.54
2023-03-15T23:55:48.839Z,0.51
2023-03-15T23:58:15.051Z,0.51
